Time;durP1;ratioP1;P1;durP2;ratioP2;P2;SDS_P1;SDS_P2;PMS_P1;PMS_P2;Temp;Humidity;BMP_temperature;BMP_pressure;BME280_temperature;BME280_humidity;BME280_pressure;Samples;Min_cycle;Max_cycle;Signal;HPM_P1;HPM_P2
2022/08/03 00:01:49;;;;;;;1.60;1.50;;;;;;;20.58;43.51;98950.28;5090833;28;41924;-72
2022/08/03 00:04:17;;;;;;;1.20;1.10;;;;;;;20.55;43.26;98950.59;5091956;28;43598;-72
2022/08/03 00:06:45;;;;;;;1.20;1.10;;;;;;;20.51;43.55;98955.47;5090596;28;42373;-72
2022/08/03 00:09:12;;;;;;;1.00;1.00;;;;;;;20.50;43.43;98952.91;5042943;28;1362487;-72
2022/08/03 00:11:41;;;;;;;1.30;1.20;;;;;;;20.45;43.73;98950.69;5093388;28;41748;-72
2022/08/03 00:14:09;;;;;;;1.00;1.00;;;;;;;20.42;43.85;98959.91;5093001;28;42841;-72
2022/08/03 00:16:37;;;;;;;1.27;1.17;;;;;;;20.38;43.93;98950.47;5093385;28;43183;-72
2022/08/03 00:19:04;;;;;;;1.10;1.00;;;;;;;20.34;43.79;98951.75;5074738;28;38969;-72
2022/08/03 00:21:32;;;;;;;1.50;1.27;;;;;;;20.32;44.19;98951.06;5091921;28;40847;-72
2022/08/03 00:24:00;;;;;;;1.33;1.23;;;;;;;20.23;44.06;98938.53;5091726;28;42820;-72
2022/08/03 00:26:27;;;;;;;1.27;1.20;;;;;;;20.25;44.25;98939.22;5092785;28;43153;-73
2022/08/03 00:28:56;;;;;;;1.17;1.10;;;;;;;20.20;44.21;98944.22;5074579;28;39846;-72
2022/08/03 00:31:24;;;;;;;1.10;1.10;;;;;;;20.18;44.28;98943.53;5091845;28;42244;-72
2022/08/03 00:33:51;;;;;;;1.00;0.90;;;;;;;20.12;44.56;98944.16;5091462;28;42739;-72
2022/08/03 00:36:19;;;;;;;1.40;1.20;;;;;;;20.07;44.65;98935.69;5074750;28;41357;-72
2022/08/03 00:38:47;;;;;;;1.20;1.10;;;;;;;20.06;44.52;98936.69;5091285;28;38557;-73
2022/08/03 00:41:14;;;;;;;1.30;1.20;;;;;;;19.90;44.66;98917.75;5091743;28;42710;-72
2022/08/03 00:43:43;;;;;;;1.10;1.00;;;;;;;19.98;45.54;98942.00;5091248;28;41711;-72
2022/08/03 00:46:13;;;;;;;1.53;1.43;;;;;;;19.93;45.40;98941.59;5091478;28;42504;-72
2022/08/03 00:48:40;;;;;;;0.93;0.93;;;;;;;19.87;45.35;98939.53;5091294;28;40191;-72
2022/08/03 00:51:08;;;;;;;1.20;1.10;;;;;;;19.84;45.46;98929.94;5074041;28;42241;-72
2022/08/03 00:53:37;;;;;;;1.27;1.17;;;;;;;19.80;45.51;98933.91;5092390;28;42820;-72
2022/08/03 00:56:05;;;;;;;0.93;0.90;;;;;;;19.77;45.60;98933.41;5092612;28;42289;-72
2022/08/03 00:58:32;;;;;;;1.50;1.40;;;;;;;19.73;45.56;98931.00;5091015;28;40247;-72
2022/08/03 01:01:00;;;;;;;1.10;1.10;;;;;;;19.64;46.01;98929.22;5092579;28;42751;-72
2022/08/03 01:03:30;;;;;;;1.10;1.10;;;;;;;19.65;46.04;98936.31;5074026;28;41679;-72
2022/08/03 01:06:04;;;;;;;1.30;1.20;;;;;;;19.62;46.38;98930.38;5090613;28;42406;-72
2022/08/03 01:08:40;;;;;;;1.47;1.37;;;;;;;19.47;46.03;98919.25;5089203;28;41018;-72
2022/08/03 01:11:16;;;;;;;0.97;0.97;;;;;;;19.44;46.36;98916.88;5088182;28;41663;-72
2022/08/03 01:13:52;;;;;;;1.03;0.93;;;;;;;19.49;46.55;98928.06;5088809;28;42500;-73
2022/08/03 01:16:26;;;;;;;1.07;1.07;;;;;;;19.44;46.43;98926.75;5089184;28;42319;-72
2022/08/03 01:19:07;;;;;;;1.47;1.37;;;;;;;19.37;46.61;98930.06;5090911;28;41229;-72
2022/08/03 01:21:48;;;;;;;1.50;1.40;;;;;;;19.36;46.78;98927.53;5090295;28;40620;-73
2022/08/03 01:24:27;;;;;;;1.13;1.13;;;;;;;19.30;46.93;98925.41;5088911;28;43684;-73
2022/08/03 01:27:05;;;;;;;1.17;1.17;;;;;;;19.10;46.99;98907.72;5089055;28;42203;-72
2022/08/03 01:30:02;;;;;;;2.13;1.23;;;;;;;19.21;47.47;98923.63;5089766;28;39956;-72
2022/08/03 01:32:37;;;;;;;1.60;1.50;;;;;;;19.16;47.15;98923.25;5090938;28;40829;-72
2022/08/03 01:35:09;;;;;;;1.17;1.10;;;;;;;19.11;47.12;98920.16;5090453;28;41587;-72
2022/08/03 01:37:42;;;;;;;1.40;1.30;;;;;;;19.07;47.22;98932.16;5088920;28;42221;-72
2022/08/03 01:40:13;;;;;;;1.20;1.10;;;;;;;19.01;47.47;98923.72;5090387;28;40707;-72
2022/08/03 01:42:43;;;;;;;1.40;1.20;;;;;;;18.98;47.59;98921.34;5090831;28;40662;-72
2022/08/03 01:45:16;;;;;;;1.30;1.20;;;;;;;18.93;47.65;98920.91;5090193;28;43231;-72
2022/08/03 01:47:46;;;;;;;1.10;1.00;;;;;;;18.91;48.00;98919.41;5087603;28;42398;-72
2022/08/03 01:50:15;;;;;;;1.20;1.10;;;;;;;18.86;47.73;98916.28;5090191;28;40970;-72
2022/08/03 01:52:45;;;;;;;1.40;1.30;;;;;;;18.83;47.93;98916.59;5091681;28;42760;-73
2022/08/03 01:55:17;;;;;;;1.20;1.10;;;;;;;18.79;47.67;98916.03;5073119;28;42828;-73
2022/08/03 01:57:47;;;;;;;1.63;1.03;;;;;;;18.76;47.91;98919.03;5090479;28;42363;-73
2022/08/03 02:00:18;;;;;;;1.40;1.30;;;;;;;18.72;47.90;98916.75;5090316;28;40311;-72
2022/08/03 02:02:49;;;;;;;1.30;1.20;;;;;;;18.68;48.43;98908.16;5087585;28;42494;-73
2022/08/03 02:05:19;;;;;;;1.53;1.37;;;;;;;18.64;48.32;98918.34;5073057;28;45040;-73
2022/08/03 02:07:49;;;;;;;1.30;1.20;;;;;;;18.59;48.51;98911.72;5091308;28;42977;-72
2022/08/03 02:10:21;;;;;;;1.87;1.40;;;;;;;18.56;48.82;98917.31;5090946;28;40697;-74
2022/08/03 02:12:50;;;;;;;1.63;1.50;;;;;;;18.52;48.52;98908.75;5088440;28;42674;-72
2022/08/03 02:15:21;;;;;;;1.50;1.40;;;;;;;18.49;48.72;98914.41;5089915;28;42774;-72
2022/08/03 02:17:50;;;;;;;1.43;1.20;;;;;;;18.47;48.79;98910.16;5092946;28;42731;-72
2022/08/03 02:20:19;;;;;;;1.33;1.17;;;;;;;18.45;48.78;98912.13;5093623;28;40075;-72
2022/08/03 02:22:48;;;;;;;1.73;1.20;;;;;;;18.27;48.33;98886.06;5094900;28;42415;-72
2022/08/03 02:25:16;;;;;;;1.47;1.40;;;;;;;18.39;48.75;98908.22;5093472;28;42862;-72
2022/08/03 02:27:50;;;;;;;1.30;1.20;;;;;;;18.36;48.75;98913.00;5076995;28;42197;-72
2022/08/03 02:30:21;;;;;;;1.20;1.10;;;;;;;18.33;48.84;98903.41;5093519;28;40749;-72
2022/08/03 02:32:55;;;;;;;1.30;1.20;;;;;;;18.30;48.97;98906.38;5095037;28;41486;-72
2022/08/03 02:35:26;;;;;;;1.37;1.27;;;;;;;18.25;49.35;98901.44;5094758;28;42851;-72
2022/08/03 02:38:00;;;;;;;1.03;1.03;;;;;;;18.23;49.05;98908.78;5093566;28;43003;-72
2022/08/03 02:40:29;;;;;;;3.17;1.30;;;;;;;18.18;49.58;98905.69;5093287;28;39046;-72
2022/08/03 02:43:01;;;;;;;2.07;1.17;;;;;;;18.14;49.39;98898.94;5093327;28;40647;-72
2022/08/03 02:45:35;;;;;;;1.40;1.30;;;;;;;18.12;49.64;98900.91;5094821;28;44580;-72
2022/08/03 02:48:05;;;;;;;1.10;1.00;;;;;;;18.08;49.70;98899.47;5090341;28;42263;-72
2022/08/03 02:50:35;;;;;;;1.17;1.10;;;;;;;18.05;49.83;98899.75;5094300;28;40719;-72
2022/08/03 02:53:04;;;;;;;1.30;1.20;;;;;;;17.95;49.58;98882.84;5094456;28;41582;-72
2022/08/03 02:55:35;;;;;;;0.93;0.93;;;;;;;17.99;49.63;98897.66;5076148;28;42835;-72
2022/08/03 02:58:04;;;;;;;1.43;1.33;;;;;;;17.93;49.74;98898.22;5076072;28;41398;-72
2022/08/03 03:00:34;;;;;;;1.27;1.17;;;;;;;17.95;49.96;98897.09;5076102;28;42112;-72
2022/08/03 03:03:05;;;;;;;1.87;1.20;;;;;;;17.94;49.66;98894.53;5093433;28;42532;-73
2022/08/03 03:05:33;;;;;;;1.00;1.00;;;;;;;17.65;49.87;98854.38;5093199;28;42258;-73
2022/08/03 03:08:01;;;;;;;1.50;1.40;;;;;;;17.90;49.82;98895.84;5094364;28;42296;-73
2022/08/03 03:10:30;;;;;;;1.17;1.07;;;;;;;17.79;50.36;98883.44;5092785;28;40714;-73
2022/08/03 03:12:59;;;;;;;1.40;1.30;;;;;;;17.85;49.87;98898.06;5094247;28;42741;-73
2022/08/03 03:15:29;;;;;;;1.20;1.10;;;;;;;17.83;50.49;98897.38;5094347;28;42579;-73
2022/08/03 03:18:01;;;;;;;1.10;1.10;;;;;;;17.80;50.45;98895.00;5091207;28;42379;-73
2022/08/03 03:20:31;;;;;;;1.30;1.20;;;;;;;17.74;50.60;98893.72;5093990;28;39963;-74
2022/08/03 03:23:00;;;;;;;1.40;1.30;;;;;;;17.74;50.80;98890.19;5075791;28;43241;-75
2022/08/03 03:25:31;;;;;;;1.73;1.10;;;;;;;17.72;50.70;98893.00;5093817;28;42944;-73
2022/08/03 03:27:59;;;;;;;1.00;1.00;;;;;;;17.68;50.63;98896.13;5092319;28;42111;-73
2022/08/03 03:30:28;;;;;;;1.47;1.37;;;;;;;17.65;50.76;98901.75;5093980;28;40899;-73
2022/08/03 03:32:57;;;;;;;1.47;1.37;;;;;;;17.62;50.78;98904.66;5093948;28;41700;-72
2022/08/03 03:35:27;;;;;;;1.53;1.43;;;;;;;17.58;51.00;98907.59;5092337;28;43454;-72
2022/08/03 03:37:55;;;;;;;1.43;1.33;;;;;;;17.51;51.08;98894.91;5075721;28;43074;-72
2022/08/03 03:40:23;;;;;;;1.33;1.23;;;;;;;17.55;50.82;98907.06;5093529;28;39976;-72
2022/08/03 03:42:51;;;;;;;1.20;1.07;;;;;;;17.44;51.16;98899.97;5093893;28;41525;-72
2022/08/03 03:45:20;;;;;;;1.50;1.40;;;;;;;17.51;50.95;98911.84;5092528;28;42694;-72
2022/08/03 03:47:48;;;;;;;1.27;1.17;;;;;;;17.51;51.34;98911.84;5092039;28;41135;-73
2022/08/03 03:50:19;;;;;;;1.37;1.20;;;;;;;17.50;51.04;98911.97;5093369;28;40881;-73
2022/08/03 03:52:48;;;;;;;1.70;1.40;;;;;;;17.52;51.64;98908.19;5092664;28;41512;-72
2022/08/03 03:55:17;;;;;;;0.97;0.97;;;;;;;17.39;51.41;98886.16;5093347;28;42795;-73
2022/08/03 03:57:45;;;;;;;1.07;1.03;;;;;;;17.54;51.32;98914.25;5092332;28;41074;-72
2022/08/03 04:00:15;;;;;;;1.30;1.20;;;;;;;17.54;51.30;98910.72;5092112;28;39949;-72
2022/08/03 04:02:43;;;;;;;1.50;1.40;;;;;;;17.54;51.63;98910.72;5093450;28;42639;-73
2022/08/03 04:11:00;;;;;;;1.43;1.20;;;;;;;17.53;51.47;98917.91;5093474;28;40124;-73
2022/08/03 04:13:32;;;;;;;1.17;1.07;;;;;;;17.51;52.13;98901.13;5090164;28;42654;-74
2022/08/03 04:16:01;;;;;;;1.20;1.10;;;;;;;17.54;52.84;98910.72;5090401;28;42691;-73
2022/08/03 04:18:32;;;;;;;1.70;1.60;;;;;;;17.52;52.54;98913.53;5091867;28;42195;-73
2022/08/03 04:21:03;;;;;;;1.63;1.40;;;;;;;17.51;52.84;98911.84;5090009;28;40090;-73
2022/08/03 04:23:35;;;;;;;1.93;1.50;;;;;;;17.51;52.78;98906.47;5090409;28;41823;-73
2022/08/03 04:26:05;;;;;;;1.43;1.33;;;;;;;17.53;52.54;98909.88;5091998;28;41535;-73
2022/08/03 04:28:34;;;;;;;1.50;1.40;;;;;;;17.56;52.57;98914.06;5091355;28;42475;-73
2022/08/03 04:31:04;;;;;;;1.70;1.57;;;;;;;17.60;52.37;98919.03;5093148;28;39988;-73
2022/08/03 04:33:34;;;;;;;1.43;1.37;;;;;;;17.63;52.14;98917.94;5091329;28;41454;-73
2022/08/03 04:36:06;;;;;;;1.50;1.40;;;;;;;17.69;52.00;98924.56;5091420;28;41645;-72
2022/08/03 04:38:39;;;;;;;1.70;1.53;;;;;;;17.74;52.23;98922.31;5088663;28;42540;-72
2022/08/03 04:41:09;;;;;;;1.20;1.13;;;;;;;17.70;52.81;98907.50;5088182;28;40846;-72
2022/08/03 04:43:40;;;;;;;2.27;1.43;;;;;;;17.82;53.10;98925.16;5074374;28;40566;-72
2022/08/03 04:46:10;;;;;;;2.47;1.60;;;;;;;17.83;53.37;98916.13;5091438;28;42419;-71
2022/08/03 04:48:38;;;;;;;1.60;1.50;;;;;;;17.93;52.73;98925.00;5091349;28;42076;-72
2022/08/03 04:51:06;;;;;;;3.03;2.10;;;;;;;18.01;52.74;98932.34;5092600;28;40882;-72
2022/08/03 04:53:35;;;;;;;2.60;1.70;;;;;;;18.10;52.69;98920.78;5074241;28;41703;-72
2022/08/03 04:56:07;;;;;;;1.60;1.50;;;;;;;18.18;52.32;98934.31;5090840;28;43385;-72
2022/08/03 04:58:35;;;;;;;1.70;1.60;;;;;;;18.28;52.48;98919.09;5088163;28;43182;-72
2022/08/03 05:01:03;;;;;;;1.60;1.50;;;;;;;18.36;52.36;98929.94;5091350;28;40866;-71
2022/08/03 05:03:31;;;;;;;1.63;1.53;;;;;;;18.46;52.86;98930.75;5073845;28;40678;-72
2022/08/03 05:05:59;;;;;;;1.80;1.70;;;;;;;18.50;52.43;98915.25;5092451;28;42770;-71
2022/08/03 05:08:27;;;;;;;1.80;1.70;;;;;;;18.65;52.32;98933.47;5091553;28;42240;-72
2022/08/03 05:10:57;;;;;;;1.60;1.50;;;;;;;18.75;52.39;98930.75;5089247;28;40914;-72
2022/08/03 05:13:25;;;;;;;1.80;1.70;;;;;;;18.85;51.71;98934.25;5090955;28;43715;-72
2022/08/03 05:15:53;;;;;;;1.40;1.30;;;;;;;18.94;51.49;98936.03;5091127;28;43552;-72
2022/08/03 05:18:20;;;;;;;1.87;1.77;;;;;;;19.05;51.34;98937.69;5092143;28;42498;-71
2022/08/03 05:20:48;;;;;;;1.70;1.60;;;;;;;19.15;51.48;98940.34;5092177;28;39944;-72
2022/08/03 05:23:16;;;;;;;1.80;1.70;;;;;;;19.25;51.15;98943.84;5090800;28;43731;-72
2022/08/03 05:25:43;;;;;;;1.67;1.57;;;;;;;19.37;51.48;98937.28;5090853;28;41461;-72
2022/08/03 05:28:13;;;;;;;1.33;1.23;;;;;;;19.26;51.35;98906.09;5090450;28;41098;-72
2022/08/03 05:30:41;;;;;;;1.47;1.37;;;;;;;19.58;51.63;98945.09;5090925;28;41100;-72
2022/08/03 05:33:08;;;;;;;2.13;1.93;;;;;;;19.67;51.28;98944.19;5073603;28;41707;-72
2022/08/03 05:35:38;;;;;;;2.87;1.57;;;;;;;19.77;51.47;98942.31;5090593;28;43629;-72
2022/08/03 05:38:06;;;;;;;1.60;1.43;;;;;;;19.87;51.50;98948.44;5091755;28;43229;-72
2022/08/03 05:40:34;;;;;;;1.50;1.40;;;;;;;19.99;51.31;98954.44;5090859;28;40100;-72
2022/08/03 05:43:02;;;;;;;1.57;1.47;;;;;;;20.11;51.14;98949.69;5073952;28;42030;-73
2022/08/03 05:45:31;;;;;;;2.17;2.07;;;;;;;20.22;51.06;98952.97;5090507;28;44297;-73
2022/08/03 05:47:59;;;;;;;2.17;1.97;;;;;;;20.32;50.72;98950.19;5091874;28;42314;-72
2022/08/03 05:50:27;;;;;;;1.93;1.77;;;;;;;20.42;50.41;98951.84;5090303;28;40904;-75
2022/08/03 05:52:57;;;;;;;2.10;1.90;;;;;;;20.55;50.34;98950.59;5090695;28;41694;-72
2022/08/03 05:55:25;;;;;;;1.70;1.60;;;;;;;20.68;49.84;98956.41;5091764;28;42452;-77
2022/08/03 05:57:53;;;;;;;2.97;1.70;;;;;;;20.82;49.61;98945.06;5090822;28;41140;-76
2022/08/03 06:00:21;;;;;;;1.80;1.70;;;;;;;20.97;49.64;98951.56;5090718;28;40893;-75
2022/08/03 06:02:50;;;;;;;2.93;1.87;;;;;;;21.08;49.15;98953.97;5090942;28;42425;-73
2022/08/03 06:05:18;;;;;;;1.70;1.60;;;;;;;21.21;49.08;98964.34;5090242;28;42591;-72
2022/08/03 06:07:46;;;;;;;1.93;1.80;;;;;;;21.33;48.46;98965.75;5073680;28;41202;-74
2022/08/03 06:10:14;;;;;;;2.37;2.10;;;;;;;21.53;48.43;98960.94;5090197;28;40287;-77
2022/08/03 06:12:43;;;;;;;2.57;1.90;;;;;;;21.79;47.94;98964.41;5091922;28;41738;-77
2022/08/03 06:15:11;;;;;;;2.07;1.87;;;;;;;21.98;47.42;98973.22;5091603;28;43767;-75
2022/08/03 06:17:46;;;;;;;1.90;1.80;;;;;;;22.14;47.24;98967.88;5091489;28;42024;-73
2022/08/03 06:20:17;;;;;;;2.73;1.70;;;;;;;22.28;46.70;98964.50;5090531;28;41534;-73
2022/08/03 06:22:45;;;;;;;1.70;1.47;;;;;;;22.44;46.48;98979.88;5087312;28;42736;-76
2022/08/03 06:25:13;;;;;;;1.87;1.77;;;;;;;22.64;46.43;98972.28;5073131;28;43323;-74
2022/08/03 06:27:40;;;;;;;2.43;1.83;;;;;;;22.88;45.85;98972.28;5073499;28;41974;-74
2022/08/03 06:30:10;;;;;;;2.43;1.90;;;;;;;23.10;45.84;98974.28;5091309;28;39857;-74
2022/08/03 06:32:38;;;;;;;1.70;1.60;;;;;;;23.37;45.50;98977.59;5073419;28;43708;-76
2022/08/03 06:35:07;;;;;;;2.77;1.77;;;;;;;23.73;44.64;98981.53;5089986;28;41739;-74
2022/08/03 06:37:45;;;;;;;1.83;1.73;;;;;;;23.96;43.78;98979.69;5090176;28;43030;-74
2022/08/03 06:40:14;;;;;;;1.53;1.43;;;;;;;24.13;43.64;98979.59;5090065;28;40067;-74
2022/08/03 06:42:43;;;;;;;1.80;1.70;;;;;;;24.39;42.99;98985.53;5090190;28;40624;-76
2022/08/03 06:45:11;;;;;;;2.10;1.90;;;;;;;24.74;42.61;99000.31;5089998;28;42763;-75
2022/08/03 06:47:40;;;;;;;1.70;1.60;;;;;;;25.07;41.96;98994.63;5090362;28;42063;-75
2022/08/03 06:50:09;;;;;;;4.03;1.97;;;;;;;25.39;41.07;99000.53;5089607;28;38780;-76
2022/08/03 06:52:37;;;;;;;2.20;2.00;;;;;;;25.57;41.21;99010.16;5072951;28;42346;-73
2022/08/03 06:55:08;;;;;;;1.70;1.60;;;;;;;25.92;40.33;99016.72;5090076;28;43541;-78
2022/08/03 06:57:35;;;;;;;2.07;1.87;;;;;;;26.19;40.12;99005.13;5090368;28;41077;-79
2022/08/03 07:00:04;;;;;;;2.40;1.77;;;;;;;26.25;39.32;99001.63;5091006;28;40696;-77
2022/08/03 07:02:32;;;;;;;2.40;1.80;;;;;;;26.37;39.58;99018.28;5092068;28;41767;-76
2022/08/03 07:04:59;;;;;;;2.40;1.93;;;;;;;26.37;39.35;99021.84;5076159;28;43470;-77
2022/08/03 07:07:27;;;;;;;1.70;1.60;;;;;;;26.37;39.14;99016.41;5093337;28;42098;-74
2022/08/03 07:09:55;;;;;;;2.50;1.60;;;;;;;26.39;39.35;99019.78;5092957;28;41803;-77
2022/08/03 07:12:28;;;;;;;2.20;1.60;;;;;;;26.44;39.22;99027.38;5076474;28;41696;-77
2022/08/03 07:14:57;;;;;;;1.73;1.63;;;;;;;26.59;39.17;99017.25;5093060;28;43382;-79
2022/08/03 07:17:25;;;;;;;2.30;1.67;;;;;;;26.83;38.80;99021.44;5093260;28;42203;-74
2022/08/03 07:19:53;;;;;;;5.37;1.87;;;;;;;27.00;38.54;99016.63;5094163;28;40774;-77
2022/08/03 07:22:21;;;;;;;3.93;2.60;;;;;;;27.26;38.16;99027.69;5094411;28;41791;-78
2022/08/03 07:24:48;;;;;;;3.43;2.10;;;;;;;27.52;37.41;99032.47;5075850;28;43057;-72
2022/08/03 07:27:17;;;;;;;1.53;1.40;;;;;;;27.86;36.15;99034.34;5093030;28;43325;-76
2022/08/03 07:29:46;;;;;;;2.40;2.03;;;;;;;28.29;36.04;99035.00;5093985;28;41044;-73
2022/08/03 07:32:14;;;;;;;2.33;1.80;;;;;;;28.47;35.50;99037.97;5092710;28;42738;-73
2022/08/03 07:34:42;;;;;;;1.97;1.77;;;;;;;28.44;35.28;99015.72;5092818;28;41455;-75
2022/08/03 07:37:10;;;;;;;2.80;1.47;;;;;;;28.70;35.05;99031.28;5092815;28;42179;-75
2022/08/03 07:39:37;;;;;;;2.57;1.50;;;;;;;28.93;34.92;99035.31;5092878;28;39828;-78
2022/08/03 07:42:05;;;;;;;1.30;1.13;;;;;;;29.03;34.74;99026.75;5093056;28;42777;-75
2022/08/03 07:44:33;;;;;;;4.27;1.97;;;;;;;29.21;34.41;99045.19;5092494;28;43642;-75
2022/08/03 07:47:02;;;;;;;2.17;1.97;;;;;;;29.36;34.37;99048.53;5092858;28;42956;-76
2022/08/03 07:49:30;;;;;;;1.90;1.63;;;;;;;29.39;33.70;99037.22;5092781;28;40802;-74
2022/08/03 07:54:39;;;;;;;1.60;1.50;;;;;;;29.68;32.77;99038.63;5069878;28;42885;-76
2022/08/03 07:57:07;;;;;;;1.53;1.43;;;;;;;29.88;31.93;99055.81;5075349;28;44720;-76
2022/08/03 07:59:37;;;;;;;2.43;1.67;;;;;;;30.11;31.52;99060.78;5092744;28;41102;-78
2022/08/03 08:02:07;;;;;;;1.50;1.40;;;;;;;30.48;31.73;99053.66;5075551;28;41272;-78
2022/08/03 08:04:34;;;;;;;1.67;1.33;;;;;;;30.90;31.00;99063.13;5092273;28;42903;-76
2022/08/03 08:07:02;;;;;;;1.70;1.50;;;;;;;31.24;29.60;99072.75;5075373;28;41975;-79
2022/08/03 08:09:30;;;;;;;1.67;1.57;;;;;;;31.57;29.04;99071.59;5075059;28;38678;-78
2022/08/03 08:11:58;;;;;;;1.80;1.70;;;;;;;31.84;28.72;99064.81;5091725;28;42851;-76
2022/08/03 08:14:26;;;;;;;1.97;1.67;;;;;;;32.17;28.69;99056.19;5091589;28;42853;-76
2022/08/03 08:16:53;;;;;;;1.60;1.50;;;;;;;32.69;27.92;99065.66;5092342;28;42025;-78
2022/08/03 08:19:23;;;;;;;1.90;1.80;;;;;;;33.28;27.57;99054.84;5092156;28;39941;-78
2022/08/03 08:21:51;;;;;;;1.80;1.70;;;;;;;33.83;27.05;99072.66;5091685;28;41333;-76
2022/08/03 08:24:18;;;;;;;2.47;1.60;;;;;;;34.09;26.48;99068.56;5091823;28;42926;-76
2022/08/03 08:26:46;;;;;;;1.77;1.40;;;;;;;34.46;26.21;99068.22;5092208;28;42498;-75
2022/08/03 08:29:14;;;;;;;1.87;1.70;;;;;;;34.73;25.96;99069.31;5092069;28;41036;-75
2022/08/03 08:31:41;;;;;;;2.20;1.83;;;;;;;35.29;25.47;99073.09;5091868;28;40739;-77
2022/08/03 08:34:09;;;;;;;1.50;1.40;;;;;;;35.93;24.90;99068.00;5091812;28;42652;-75
2022/08/03 08:36:38;;;;;;;1.60;1.50;;;;;;;36.53;23.80;99079.00;5092046;28;42221;-75
2022/08/03 08:39:06;;;;;;;1.70;1.60;;;;;;;37.30;23.38;99075.09;5091784;28;38554;-75
2022/08/03 08:41:34;;;;;;;2.77;2.13;;;;;;;37.95;22.65;99080.28;5075419;28;41683;-76
2022/08/03 08:44:02;;;;;;;1.55;1.45;;;;;;;38.20;22.02;99087.91;5092901;28;42889;-76
2022/08/03 08:46:32;;;;;;;2.10;1.90;;;;;;;38.43;22.27;99087.44;5074393;28;41118;-77
2022/08/03 08:49:01;;;;;;;1.30;1.30;;;;;;;39.28;21.42;99074.03;5091648;28;41057;-78
2022/08/03 08:51:33;;;;;;;1.75;1.65;;;;;;;40.82;20.05;99090.00;5074394;28;42715;-78
2022/08/03 08:54:07;;;;;;;1.70;1.60;;;;;;;42.48;18.78;99102.66;5091410;28;43829;-74
2022/08/03 08:56:37;;;;;;;1.80;1.70;;;;;;;43.80;17.57;99095.03;5089977;28;42176;-78
2022/08/03 08:59:05;;;;;;;1.58;1.48;;;;;;;44.64;16.75;99096.41;5074518;28;39610;-75
2022/08/03 09:01:33;;;;;;;2.83;1.50;;;;;;;44.79;16.05;99102.81;5091562;28;42062;-77
2022/08/03 09:04:01;;;;;;;3.17;1.50;;;;;;;44.37;16.70;99091.72;5091281;28;42717;-76
2022/08/03 09:06:28;;;;;;;2.08;1.52;;;;;;;43.64;17.39;99081.41;5091536;28;42666;-75
2022/08/03 09:08:56;;;;;;;3.17;1.73;;;;;;;42.76;17.92;99084.19;5073981;28;39816;-75
2022/08/03 09:11:25;;;;;;;1.77;1.67;;;;;;;42.21;18.29;99076.25;5091127;28;42100;-76
2022/08/03 09:13:53;;;;;;;1.75;1.52;;;;;;;41.84;18.60;99074.16;5090852;28;42865;-77
2022/08/03 09:16:22;;;;;;;1.75;1.65;;;;;;;41.77;18.47;99067.28;5091317;28;40632;-75
2022/08/03 09:18:52;;;;;;;3.97;1.65;;;;;;;41.78;18.59;99063.38;5073850;28;40016;-78
2022/08/03 09:21:22;;;;;;;1.70;1.60;;;;;;;41.55;18.85;99063.03;5091260;28;40551;-75
2022/08/03 09:23:53;;;;;;;3.35;2.00;;;;;;;41.57;19.11;99063.59;5090631;28;41708;-78
2022/08/03 09:26:23;;;;;;;1.90;1.80;;;;;;;41.45;18.67;99063.13;5073832;28;42711;-78
2022/08/03 09:29:00;;;;;;;1.80;1.70;;;;;;;40.88;18.94;99056.34;5088891;28;39950;-76
2022/08/03 09:31:33;;;;;;;1.85;1.70;;;;;;;40.47;19.45;99054.91;5091090;28;41743;-76
2022/08/03 09:34:05;;;;;;;1.98;1.75;;;;;;;40.59;19.33;99052.63;5073933;28;41868;-77
2022/08/03 09:36:38;;;;;;;1.63;1.52;;;;;;;40.75;19.75;99040.34;5090690;28;41498;-77
2022/08/03 09:39:09;;;;;;;1.60;1.50;;;;;;;40.88;19.03;99048.03;5091844;28;40932;-77
2022/08/03 09:41:39;;;;;;;2.13;1.77;;;;;;;40.89;19.46;99049.69;5074094;28;40414;-75
2022/08/03 09:44:09;;;;;;;1.70;1.60;;;;;;;41.37;18.93;99041.50;5073475;28;41558;-77
2022/08/03 09:46:50;;;;;;;1.88;1.77;;;;;;;41.59;18.83;99036.31;5090754;28;42046;-75
2022/08/03 09:49:18;;;;;;;1.70;1.60;;;;;;;41.38;19.09;99043.19;5090651;28;40206;-75
2022/08/03 09:51:46;;;;;;;1.60;1.50;;;;;;;40.95;19.37;99033.78;5090772;28;40831;-74
2022/08/03 09:54:25;;;;;;;2.65;1.80;;;;;;;41.32;19.08;99038.78;5073324;28;43699;-77
2022/08/03 09:56:53;;;;;;;1.98;1.65;;;;;;;42.85;17.63;99038.63;5073739;28;41413;-77
2022/08/03 09:59:27;;;;;;;1.60;1.50;;;;;;;43.67;17.05;99046.44;5090754;28;40811;-78
2022/08/03 10:01:56;;;;;;;1.73;1.52;;;;;;;43.33;16.70;99035.63;5087261;28;41726;-76
2022/08/03 10:04:24;;;;;;;2.15;1.50;;;;;;;42.56;17.22;99049.06;5090042;28;42784;-76
2022/08/03 10:07:07;;;;;;;1.67;1.58;;;;;;;41.85;17.67;99041.59;5091566;28;42700;-75
2022/08/03 10:09:35;;;;;;;1.70;1.60;;;;;;;41.58;18.31;99037.44;5089787;28;39984;-78
2022/08/03 10:12:10;;;;;;;1.60;1.50;;;;;;;41.48;18.46;99020.81;5073354;28;41721;-77
2022/08/03 10:14:44;;;;;;;2.00;1.65;;;;;;;41.55;18.54;99015.75;5089980;28;43680;-74
2022/08/03 10:17:12;;;;;;;2.05;1.75;;;;;;;41.57;18.51;98984.88;5073338;28;41132;-75
2022/08/03 10:19:40;;;;;;;1.50;1.40;;;;;;;42.95;17.46;99026.50;5090178;28;39122;-76
2022/08/03 10:22:12;;;;;;;2.65;1.30;;;;;;;44.93;16.06;99031.75;5091210;28;41799;-78
2022/08/03 10:24:45;;;;;;;1.65;1.55;;;;;;;46.70;14.94;99027.97;5090366;28;42823;-75
2022/08/03 10:27:14;;;;;;;1.60;1.50;;;;;;;47.33;14.16;99034.84;5090099;28;42093;-74
2022/08/03 10:29:50;;;;;;;1.50;1.40;;;;;;;47.61;13.99;99036.09;5089878;28;39789;-75
2022/08/03 10:32:24;;;;;;;1.70;1.50;;;;;;;47.88;13.94;99021.66;5088288;28;42716;-75
2022/08/03 10:35:00;;;;;;;2.15;1.40;;;;;;;48.31;13.56;99014.16;5073293;28;41690;-73
2022/08/03 10:37:30;;;;;;;1.55;1.45;;;;;;;47.91;13.78;99013.72;5088643;28;42077;-73
2022/08/03 10:40:00;;;;;;;1.70;1.60;;;;;;;46.84;14.21;99011.81;5093406;28;38629;-73
2022/08/03 10:42:30;;;;;;;1.48;1.38;;;;;;;46.53;14.78;99017.53;5095080;28;41812;-72
2022/08/03 10:45:06;;;;;;;1.85;1.75;;;;;;;47.08;13.62;99008.50;5092734;28;43678;-75
2022/08/03 10:47:36;;;;;;;2.25;2.15;;;;;;;47.56;13.56;99002.63;5091718;28;42182;-75
2022/08/03 10:50:04;;;;;;;1.85;1.70;;;;;;;47.56;13.89;99011.03;5094406;28;40025;-75
2022/08/03 10:52:33;;;;;;;1.80;1.70;;;;;;;46.85;14.21;98991.03;5093007;28;41902;-74
2022/08/03 10:57:48;;;;;;;1.50;1.40;;;;;;;46.41;14.63;98976.16;5091723;28;42332;-74
2022/08/03 11:00:19;;;;;;;1.67;1.58;;;;;;;46.88;14.09;98990.34;5093039;28;39962;-77
2022/08/03 11:03:10;;;;;;;1.60;1.50;;;;;;;47.40;14.51;98984.69;5090301;28;41674;-73
2022/08/03 11:05:40;;;;;;;1.70;1.60;;;;;;;46.94;14.90;98985.41;5093006;28;41898;-76
2022/08/03 11:08:21;;;;;;;1.70;1.60;;;;;;;46.25;15.00;98972.16;5092858;28;42233;-75
2022/08/03 11:10:51;;;;;;;2.08;1.98;;;;;;;45.79;15.53;98976.31;5090075;28;40704;-73
2022/08/03 11:13:21;;;;;;;2.33;1.98;;;;;;;45.77;15.58;98967.41;5093851;28;41811;-76
2022/08/03 11:15:52;;;;;;;1.63;1.52;;;;;;;45.88;15.27;98978.31;5094145;28;42884;-74
2022/08/03 11:18:20;;;;;;;1.77;1.67;;;;;;;46.26;15.46;98973.81;5090743;28;41981;-75
2022/08/03 11:20:50;;;;;;;1.70;1.55;;;;;;;46.77;14.82;98980.63;5092215;28;40832;-75
2022/08/03 11:23:21;;;;;;;1.60;1.50;;;;;;;47.20;14.56;98983.41;5093773;28;41774;-75
2022/08/03 11:26:11;;;;;;;1.50;1.40;;;;;;;47.45;14.17;98981.69;5076041;28;42063;-76
2022/08/03 11:28:40;;;;;;;1.70;1.30;;;;;;;47.11;14.36;98977.00;5092828;28;41104;-76
2022/08/03 11:31:56;;;;;;;1.30;1.30;;;;;;;46.58;14.40;98968.91;5076030;28;38451;-74
2022/08/03 11:34:26;;;;;;;1.95;1.30;;;;;;;46.04;15.28;98957.97;5092537;28;42730;-76
2022/08/03 11:37:22;;;;;;;1.40;1.30;;;;;;;45.79;15.50;98951.13;5092731;28;41877;-76
2022/08/03 11:39:55;;;;;;;1.50;1.40;;;;;;;45.52;15.28;98942.97;5037743;28;42917;-74
2022/08/03 11:42:40;;;;;;;1.63;1.52;;;;;;;45.29;16.12;98938.56;5093155;28;40364;-73
2022/08/03 11:45:10;;;;;;;1.65;1.55;;;;;;;45.23;15.72;98939.88;5092137;28;42614;-73
2022/08/03 11:47:39;;;;;;;1.60;1.50;;;;;;;45.32;15.78;98940.72;5093723;28;42548;-75
2022/08/03 11:50:08;;;;;;;1.67;1.58;;;;;;;45.49;15.22;98952.00;5074889;28;42197;-75
2022/08/03 11:52:40;;;;;;;1.35;1.27;;;;;;;45.46;15.41;98938.66;5075460;28;39660;-75
2022/08/03 11:55:12;;;;;;;1.73;1.63;;;;;;;46.14;15.34;98954.03;5093092;28;41810;-77
2022/08/03 11:57:41;;;;;;;2.00;1.67;;;;;;;46.96;14.51;98941.84;5090418;28;43716;-78
2022/08/03 12:00:29;;;;;;;1.35;1.27;;;;;;;48.37;13.75;98950.94;5092079;28;41768;-73